UAE91A HECA-OMDB
Flight info
| Callsign | UAE91A |
|---|---|
| Flight time | 2h 39m |
| Altitude | 41000 |
| Route | MENLI N697 SISIK W976 TAKSU L550 KARIK B411 DEESA Y415 LOTOK P559 VUTEB |
| Aircraft | A359/H-SDE2E3GHIJ3J4J5LM1ORWXY/LB1D1 |
Departure
| Time | 2026-04-25 11:56 |
|---|---|
| Airport | Cairo International Airport (HECA) |
Arrival
| Time | 2026-04-25 14:36 |
|---|---|
| Airport | Dubai International Airport (OMDB) |
| Time | Latitude | Longitude | Altitude | Speed | Heading |
|---|---|---|---|---|---|
| 2026-04-25 11:21 | 30.12716 | 31.39527 | 252 ft | 0 kts | 141° |
| 2026-04-25 11:37 | 30.12734 | 31.39510 | 252 ft | 4 kts | 141° |
| 2026-04-25 11:37 | 30.12755 | 31.39490 | 250 ft | 4 kts | 135° |
| 2026-04-25 11:38 | 30.12773 | 31.39467 | 248 ft | 4 kts | 125° |
| 2026-04-25 11:38 | 30.12787 | 31.39440 | 247 ft | 4 kts | 114° |
| 2026-04-25 11:38 | 30.12794 | 31.39423 | 246 ft | 1 kts | 109° |
| 2026-04-25 11:38 | 30.12795 | 31.39424 | 246 ft | 0 kts | 109° |
| 2026-04-25 11:40 | 30.12795 | 31.39425 | 246 ft | 1 kts | 105° |
| 2026-04-25 11:41 | 30.12796 | 31.39431 | 246 ft | 0 kts | 92° |
| 2026-04-25 11:41 | 30.12797 | 31.39433 | 246 ft | 1 kts | 83° |
| 2026-04-25 11:41 | 30.12815 | 31.39474 | 246 ft | 9 kts | 56° |
| 2026-04-25 11:42 | 30.12860 | 31.39538 | 246 ft | 11 kts | 50° |
| 2026-04-25 11:42 | 30.12917 | 31.39614 | 246 ft | 14 kts | 49° |
| 2026-04-25 11:42 | 30.12987 | 31.39710 | 246 ft | 17 kts | 50° |
| 2026-04-25 11:42 | 30.13067 | 31.39818 | 246 ft | 19 kts | 50° |
| 2026-04-25 11:43 | 30.13160 | 31.39941 | 246 ft | 21 kts | 48° |
| 2026-04-25 11:43 | 30.13261 | 31.40079 | 247 ft | 23 kts | 63° |
| 2026-04-25 11:43 | 30.13265 | 31.40249 | 253 ft | 20 kts | 102° |
| 2026-04-25 11:43 | 30.13235 | 31.40401 | 259 ft | 18 kts | 106° |
| 2026-04-25 11:44 | 30.13194 | 31.40531 | 265 ft | 16 kts | 115° |
| 2026-04-25 11:44 | 30.13136 | 31.40628 | 271 ft | 13 kts | 143° |
| 2026-04-25 11:44 | 30.13058 | 31.40667 | 276 ft | 11 kts | 162° |
| 2026-04-25 11:44 | 30.12991 | 31.40692 | 280 ft | 9 kts | 162° |
| 2026-04-25 11:45 | 30.12903 | 31.40724 | 284 ft | 20 kts | 162° |
| 2026-04-25 11:45 | 30.12772 | 31.40772 | 298 ft | 18 kts | 162° |
| 2026-04-25 11:45 | 30.12661 | 31.40812 | 303 ft | 15 kts | 162° |
| 2026-04-25 11:45 | 30.12567 | 31.40847 | 307 ft | 13 kts | 162° |
| 2026-04-25 11:46 | 30.12489 | 31.40876 | 311 ft | 11 kts | 162° |
| 2026-04-25 11:46 | 30.12422 | 31.40900 | 315 ft | 10 kts | 163° |
| 2026-04-25 11:46 | 30.12361 | 31.40922 | 317 ft | 8 kts | 161° |
| 2026-04-25 11:46 | 30.12317 | 31.40940 | 317 ft | 6 kts | 161° |
| 2026-04-25 11:47 | 30.12243 | 31.40967 | 322 ft | 14 kts | 162° |
| 2026-04-25 11:47 | 30.12161 | 31.40996 | 324 ft | 11 kts | 163° |
| 2026-04-25 11:47 | 30.12094 | 31.41020 | 329 ft | 9 kts | 162° |
| 2026-04-25 11:47 | 30.12043 | 31.41039 | 330 ft | 7 kts | 162° |
| 2026-04-25 11:48 | 30.12006 | 31.41052 | 333 ft | 5 kts | 162° |
| 2026-04-25 11:48 | 30.11982 | 31.41061 | 334 ft | 3 kts | 163° |
| 2026-04-25 11:48 | 30.11960 | 31.41068 | 335 ft | 4 kts | 163° |
| 2026-04-25 11:48 | 30.11910 | 31.41086 | 352 ft | 13 kts | 162° |
| 2026-04-25 11:49 | 30.11832 | 31.41114 | 352 ft | 10 kts | 162° |
| 2026-04-25 11:49 | 30.11771 | 31.41137 | 359 ft | 8 kts | 162° |
| 2026-04-25 11:49 | 30.11695 | 31.41166 | 363 ft | 18 kts | 162° |
| 2026-04-25 11:49 | 30.11542 | 31.41221 | 371 ft | 25 kts | 163° |
| 2026-04-25 11:50 | 30.11389 | 31.41272 | 376 ft | 20 kts | 176° |
| 2026-04-25 11:50 | 30.11289 | 31.41182 | 376 ft | 19 kts | 229° |
| 2026-04-25 11:50 | 30.11198 | 31.41061 | 377 ft | 21 kts | 229° |
| 2026-04-25 11:50 | 30.11101 | 31.40932 | 377 ft | 22 kts | 229° |
| 2026-04-25 11:51 | 30.11023 | 31.40828 | 377 ft | 14 kts | 229° |
| 2026-04-25 11:51 | 30.10954 | 31.40735 | 377 ft | 16 kts | 229° |
| 2026-04-25 11:51 | 30.10877 | 31.40633 | 377 ft | 18 kts | 229° |
| 2026-04-25 11:51 | 30.10793 | 31.40521 | 378 ft | 19 kts | 227° |
| 2026-04-25 11:52 | 30.10704 | 31.40406 | 378 ft | 20 kts | 228° |
| 2026-04-25 11:52 | 30.10611 | 31.40283 | 379 ft | 21 kts | 230° |
| 2026-04-25 11:52 | 30.10515 | 31.40154 | 379 ft | 22 kts | 229° |
| 2026-04-25 11:52 | 30.10411 | 31.40014 | 379 ft | 24 kts | 229° |
| 2026-04-25 11:53 | 30.10301 | 31.39867 | 379 ft | 25 kts | 228° |
| 2026-04-25 11:53 | 30.10194 | 31.39727 | 379 ft | 4 kts | 229° |
| 2026-04-25 11:53 | 30.10194 | 31.39726 | 379 ft | 0 kts | 229° |
| 2026-04-25 11:54 | 30.10178 | 31.39705 | 380 ft | 9 kts | 227° |
| 2026-04-25 11:54 | 30.10127 | 31.39664 | 381 ft | 9 kts | 200° |
| 2026-04-25 11:54 | 30.10036 | 31.39685 | 387 ft | 8 kts | 142° |
| 2026-04-25 11:55 | 30.10003 | 31.39763 | 392 ft | 14 kts | 94° |
| 2026-04-25 11:55 | 30.10040 | 31.39912 | 394 ft | 25 kts | 58° |
| 2026-04-25 11:55 | 30.10110 | 31.40012 | 394 ft | 0 kts | 49° |
| 2026-04-25 11:56 | 30.10123 | 31.40030 | 394 ft | 21 kts | 49° |
| 2026-04-25 11:56 | 30.10451 | 31.40467 | 391 ft | 122 kts | 49° |
| 2026-04-25 11:56 | 30.11202 | 31.41474 | 487 ft | 198 kts | 50° |
| 2026-04-25 11:56 | 30.12170 | 31.42725 | 1388 ft | 215 kts | 53° |
| 2026-04-25 11:57 | 30.12745 | 31.44309 | 2323 ft | 212 kts | 86° |
| 2026-04-25 11:57 | 30.12509 | 31.45961 | 3077 ft | 210 kts | 117° |
| 2026-04-25 11:57 | 30.11797 | 31.47519 | 3516 ft | 232 kts | 124° |
| 2026-04-25 11:57 | 30.10870 | 31.49126 | 3802 ft | 256 kts | 132° |
| 2026-04-25 11:58 | 30.09672 | 31.50734 | 4340 ft | 269 kts | 134° |
| 2026-04-25 11:58 | 30.08369 | 31.52332 | 5077 ft | 276 kts | 136° |
| 2026-04-25 11:58 | 30.06999 | 31.53931 | 5829 ft | 283 kts | 137° |
| 2026-04-25 11:58 | 30.05596 | 31.55532 | 6746 ft | 284 kts | 138° |
| 2026-04-25 11:59 | 30.04175 | 31.57145 | 7542 ft | 290 kts | 138° |
| 2026-04-25 11:59 | 30.02716 | 31.58804 | 8400 ft | 297 kts | 138° |
| 2026-04-25 11:59 | 30.01241 | 31.60489 | 9340 ft | 300 kts | 138° |
| 2026-04-25 12:00 | 29.98714 | 31.63390 | 10481 ft | 322 kts | 138° |
| 2026-04-25 12:00 | 29.96509 | 31.65917 | 10969 ft | 351 kts | 138° |
| 2026-04-25 12:00 | 29.92979 | 31.69983 | 12519 ft | 361 kts | 138° |
| 2026-04-25 12:01 | 29.91199 | 31.72040 | 13450 ft | 363 kts | 138° |
| 2026-04-25 12:01 | 29.89405 | 31.74109 | 14289 ft | 365 kts | 139° |
| 2026-04-25 12:01 | 29.87595 | 31.76193 | 15056 ft | 369 kts | 139° |
| 2026-04-25 12:01 | 29.85768 | 31.78293 | 15813 ft | 372 kts | 139° |
| 2026-04-25 12:02 | 29.82088 | 31.82516 | 17338 ft | 379 kts | 140° |
| 2026-04-25 12:02 | 29.80289 | 31.84762 | 18079 ft | 386 kts | 134° |
| 2026-04-25 12:02 | 29.78757 | 31.87337 | 18733 ft | 396 kts | 124° |
| 2026-04-25 12:03 | 29.77602 | 31.90261 | 19325 ft | 406 kts | 115° |
| 2026-04-25 12:03 | 29.76707 | 31.93378 | 19918 ft | 415 kts | 110° |
| 2026-04-25 12:03 | 29.75953 | 31.96609 | 20536 ft | 421 kts | 108° |
| 2026-04-25 12:03 | 29.75261 | 31.99911 | 21167 ft | 427 kts | 107° |
| 2026-04-25 12:04 | 29.74576 | 32.03267 | 21798 ft | 433 kts | 107° |
| 2026-04-25 12:04 | 29.73875 | 32.06657 | 22442 ft | 438 kts | 108° |
| 2026-04-25 12:04 | 29.73148 | 32.10077 | 23036 ft | 443 kts | 108° |
| 2026-04-25 12:04 | 29.72394 | 32.13535 | 23616 ft | 448 kts | 108° |
| 2026-04-25 12:05 | 29.71621 | 32.17027 | 24126 ft | 453 kts | 108° |
| 2026-04-25 12:05 | 29.70840 | 32.20520 | 24646 ft | 457 kts | 108° |
| 2026-04-25 12:05 | 29.70032 | 32.24123 | 25188 ft | 461 kts | 108° |
| 2026-04-25 12:05 | 29.69226 | 32.27707 | 25689 ft | 466 kts | 108° |
| 2026-04-25 12:06 | 29.68417 | 32.31297 | 26186 ft | 470 kts | 108° |
| 2026-04-25 12:06 | 29.67594 | 32.34951 | 26676 ft | 474 kts | 108° |
| 2026-04-25 12:06 | 29.66766 | 32.38625 | 27227 ft | 477 kts | 108° |
| 2026-04-25 12:06 | 29.65926 | 32.42348 | 27725 ft | 481 kts | 108° |
| 2026-04-25 12:07 | 29.65081 | 32.46089 | 28204 ft | 486 kts | 108° |
| 2026-04-25 12:07 | 29.64224 | 32.49877 | 28691 ft | 490 kts | 108° |
| 2026-04-25 12:07 | 29.63363 | 32.53682 | 29159 ft | 494 kts | 108° |
| 2026-04-25 12:07 | 29.62492 | 32.57520 | 29625 ft | 498 kts | 108° |
| 2026-04-25 12:08 | 29.61624 | 32.61341 | 30051 ft | 502 kts | 108° |
| 2026-04-25 12:08 | 29.60749 | 32.65247 | 30405 ft | 507 kts | 106° |
| 2026-04-25 12:08 | 29.60190 | 32.69271 | 30737 ft | 515 kts | 97° |
| 2026-04-25 12:08 | 29.60046 | 32.73416 | 31055 ft | 521 kts | 93° |
| 2026-04-25 12:09 | 29.60022 | 32.77594 | 31376 ft | 525 kts | 91° |
| 2026-04-25 12:09 | 29.60057 | 32.81816 | 31695 ft | 530 kts | 91° |
| 2026-04-25 12:09 | 29.60118 | 32.86069 | 32001 ft | 534 kts | 90° |
| 2026-04-25 12:09 | 29.60183 | 32.90354 | 32304 ft | 538 kts | 90° |
| 2026-04-25 12:10 | 29.60241 | 32.94626 | 32595 ft | 542 kts | 91° |
| 2026-04-25 12:10 | 29.60292 | 32.98971 | 32873 ft | 546 kts | 91° |
| 2026-04-25 12:10 | 29.60336 | 33.03349 | 33140 ft | 550 kts | 91° |
| 2026-04-25 12:10 | 29.60374 | 33.07752 | 33410 ft | 553 kts | 91° |
| 2026-04-25 12:11 | 29.60409 | 33.12188 | 33686 ft | 556 kts | 91° |
| 2026-04-25 12:11 | 29.60441 | 33.16648 | 33904 ft | 560 kts | 91° |
| 2026-04-25 12:11 | 29.60473 | 33.21147 | 34066 ft | 565 kts | 91° |
| 2026-04-25 12:11 | 29.60502 | 33.25675 | 34320 ft | 567 kts | 91° |
| 2026-04-25 12:12 | 29.60522 | 33.28687 | 34487 ft | 568 kts | 91° |
| 2026-04-25 12:12 | 29.60549 | 33.33235 | 34738 ft | 570 kts | 91° |
| 2026-04-25 12:12 | 29.60577 | 33.37784 | 35158 ft | 568 kts | 91° |
| 2026-04-25 12:12 | 29.60610 | 33.43867 | 35411 ft | 572 kts | 91° |
| 2026-04-25 12:13 | 29.60625 | 33.46901 | 35538 ft | 573 kts | 91° |
| 2026-04-25 12:13 | 29.60654 | 33.52981 | 35844 ft | 576 kts | 91° |
| 2026-04-25 12:13 | 29.60668 | 33.56093 | 35991 ft | 577 kts | 91° |
| 2026-04-25 12:13 | 29.60693 | 33.62213 | 36288 ft | 580 kts | 91° |
| 2026-04-25 12:14 | 29.60705 | 33.65351 | 36415 ft | 581 kts | 91° |
| 2026-04-25 12:14 | 29.60725 | 33.71525 | 36680 ft | 584 kts | 91° |
| 2026-04-25 12:14 | 29.60735 | 33.74637 | 36809 ft | 585 kts | 91° |
| 2026-04-25 12:14 | 29.60748 | 33.79316 | 37021 ft | 587 kts | 91° |
| 2026-04-25 12:15 | 29.60760 | 33.84018 | 37237 ft | 588 kts | 91° |
| 2026-04-25 12:15 | 29.60764 | 33.88731 | 37437 ft | 590 kts | 92° |
| 2026-04-25 12:15 | 29.60758 | 33.93461 | 37640 ft | 592 kts | 92° |
| 2026-04-25 12:15 | 29.60746 | 33.98194 | 37809 ft | 593 kts | 92° |
| 2026-04-25 12:16 | 29.60733 | 34.02949 | 37992 ft | 595 kts | 92° |
| 2026-04-25 12:16 | 29.60719 | 34.07712 | 38186 ft | 597 kts | 92° |
| 2026-04-25 12:16 | 29.60705 | 34.12428 | 38382 ft | 598 kts | 92° |
| 2026-04-25 12:16 | 29.60690 | 34.17211 | 38625 ft | 599 kts | 92° |
| 2026-04-25 12:17 | 29.60677 | 34.21985 | 38915 ft | 596 kts | 92° |
| 2026-04-25 12:17 | 29.60664 | 34.26743 | 39154 ft | 595 kts | 92° |
| 2026-04-25 12:17 | 29.60665 | 34.31493 | 39354 ft | 595 kts | 92° |
| 2026-04-25 12:17 | 29.60675 | 34.36255 | 39568 ft | 594 kts | 92° |
| 2026-04-25 12:18 | 29.60686 | 34.41007 | 39799 ft | 593 kts | 92° |
| 2026-04-25 12:18 | 29.60695 | 34.45750 | 40016 ft | 592 kts | 92° |
| 2026-04-25 12:18 | 29.60622 | 34.50484 | 40136 ft | 591 kts | 97° |
| 2026-04-25 12:18 | 29.59987 | 34.55131 | 40209 ft | 586 kts | 109° |
| 2026-04-25 12:19 | 29.57416 | 34.62166 | 40445 ft | 564 kts | 131° |
| 2026-04-25 12:19 | 29.54203 | 34.66689 | 40655 ft | 541 kts | 148° |
| 2026-04-25 12:19 | 29.51418 | 34.69569 | 40815 ft | 535 kts | 150° |
| 2026-04-25 12:20 | 29.48688 | 34.72523 | 40864 ft | 546 kts | 142° |
| 2026-04-25 12:20 | 29.46273 | 34.75949 | 40867 ft | 559 kts | 132° |
| 2026-04-25 12:20 | 29.44371 | 34.79903 | 40867 ft | 573 kts | 119° |
| 2026-04-25 12:20 | 29.43155 | 34.84311 | 40880 ft | 584 kts | 107° |
| 2026-04-25 12:21 | 29.42351 | 34.88891 | 40870 ft | 586 kts | 104° |
| 2026-04-25 12:21 | 29.41921 | 34.98196 | 40871 ft | 594 kts | 83° |
| 2026-04-25 12:22 | 29.43697 | 35.07454 | 40876 ft | 594 kts | 74° |
| 2026-04-25 12:22 | 29.45888 | 35.16620 | 40896 ft | 596 kts | 73° |
| 2026-04-25 12:23 | 29.48106 | 35.25790 | 40883 ft | 596 kts | 73° |
| 2026-04-25 12:23 | 29.50267 | 35.34935 | 40915 ft | 596 kts | 74° |
| 2026-04-25 12:24 | 29.52402 | 35.44129 | 40910 ft | 595 kts | 74° |
| 2026-04-25 12:24 | 29.54532 | 35.53308 | 40896 ft | 594 kts | 73° |
| 2026-04-25 12:25 | 29.56706 | 35.62488 | 40899 ft | 595 kts | 73° |
| 2026-04-25 12:25 | 29.58889 | 35.71670 | 40895 ft | 595 kts | 73° |
| 2026-04-25 12:26 | 29.61043 | 35.80783 | 40895 ft | 594 kts | 74° |
| 2026-04-25 12:26 | 29.62877 | 35.90051 | 40886 ft | 594 kts | 79° |
| 2026-04-25 12:27 | 29.64261 | 35.99416 | 40886 ft | 594 kts | 81° |
| 2026-04-25 12:27 | 29.65646 | 36.08743 | 40884 ft | 594 kts | 80° |
| 2026-04-25 12:28 | 29.67126 | 36.18102 | 40884 ft | 594 kts | 79° |
| 2026-04-25 12:28 | 29.68638 | 36.27439 | 40886 ft | 594 kts | 79° |
| 2026-04-25 12:29 | 29.70148 | 36.36790 | 40888 ft | 592 kts | 79° |
| 2026-04-25 12:29 | 29.71648 | 36.46046 | 40895 ft | 592 kts | 79° |
| 2026-04-25 12:30 | 29.73160 | 36.55367 | 40894 ft | 593 kts | 79° |
| 2026-04-25 12:30 | 29.74571 | 36.64720 | 40898 ft | 593 kts | 85° |
| 2026-04-25 12:30 | 29.74648 | 36.69455 | 40907 ft | 589 kts | 97° |
| 2026-04-25 12:31 | 29.74087 | 36.74099 | 40909 ft | 585 kts | 104° |
| 2026-04-25 12:31 | 29.72432 | 36.83254 | 40945 ft | 583 kts | 107° |
| 2026-04-25 12:32 | 29.70571 | 36.92285 | 40917 ft | 582 kts | 108° |
| 2026-04-25 12:32 | 29.68702 | 37.01340 | 40905 ft | 581 kts | 108° |
| 2026-04-25 12:33 | 29.66863 | 37.10412 | 40926 ft | 582 kts | 107° |
| 2026-04-25 12:33 | 29.65048 | 37.19424 | 40924 ft | 581 kts | 107° |
| 2026-04-25 12:34 | 29.63216 | 37.28495 | 40917 ft | 582 kts | 107° |
| 2026-04-25 12:34 | 29.61381 | 37.37541 | 40919 ft | 581 kts | 108° |
| 2026-04-25 12:35 | 29.59534 | 37.46601 | 40922 ft | 582 kts | 108° |
| 2026-04-25 12:35 | 29.57679 | 37.55667 | 40916 ft | 582 kts | 108° |
| 2026-04-25 12:36 | 29.55822 | 37.64715 | 40915 ft | 582 kts | 108° |
| 2026-04-25 12:36 | 29.53958 | 37.73757 | 40908 ft | 582 kts | 108° |
| 2026-04-25 12:37 | 29.52099 | 37.82745 | 40911 ft | 582 kts | 108° |
| 2026-04-25 12:37 | 29.50218 | 37.91806 | 40917 ft | 582 kts | 108° |
| 2026-04-25 12:38 | 29.48337 | 38.00846 | 40911 ft | 583 kts | 107° |
| 2026-04-25 12:38 | 29.46660 | 38.09959 | 40907 ft | 584 kts | 105° |
| 2026-04-25 12:39 | 29.45103 | 38.19116 | 40902 ft | 584 kts | 105° |
| 2026-04-25 12:39 | 29.43528 | 38.28203 | 40923 ft | 584 kts | 105° |
| 2026-04-25 12:40 | 29.41903 | 38.37334 | 40919 ft | 584 kts | 105° |
| 2026-04-25 12:40 | 29.40258 | 38.46465 | 40925 ft | 584 kts | 105° |
| 2026-04-25 12:41 | 29.38608 | 38.55586 | 40939 ft | 583 kts | 105° |
| 2026-04-25 12:41 | 29.36958 | 38.64688 | 40926 ft | 582 kts | 105° |
| 2026-04-25 12:42 | 29.35315 | 38.73713 | 40917 ft | 582 kts | 105° |
| 2026-04-25 12:42 | 29.33655 | 38.82795 | 40927 ft | 582 kts | 105° |
| 2026-04-25 12:43 | 29.31989 | 38.91877 | 40925 ft | 581 kts | 105° |
| 2026-04-25 12:43 | 29.29199 | 39.05384 | 40940 ft | 580 kts | 108° |
| 2026-04-25 12:44 | 29.27265 | 39.14363 | 40924 ft | 580 kts | 108° |
| 2026-04-25 12:45 | 29.24419 | 39.27774 | 40948 ft | 580 kts | 108° |
| 2026-04-25 12:45 | 29.21568 | 39.41256 | 40953 ft | 580 kts | 108° |
| 2026-04-25 12:46 | 29.19663 | 39.50223 | 40952 ft | 579 kts | 108° |
| 2026-04-25 12:46 | 29.17752 | 39.59181 | 40935 ft | 579 kts | 108° |
| 2026-04-25 12:47 | 29.15847 | 39.68074 | 40950 ft | 579 kts | 108° |
| 2026-04-25 12:47 | 29.13923 | 39.77028 | 40954 ft | 579 kts | 108° |
| 2026-04-25 12:48 | 29.11993 | 39.85977 | 40947 ft | 579 kts | 108° |
| 2026-04-25 12:48 | 29.10117 | 39.94927 | 40947 ft | 580 kts | 105° |
| 2026-04-25 12:49 | 29.08686 | 40.04033 | 40917 ft | 581 kts | 102° |
| 2026-04-25 12:49 | 29.07370 | 40.13168 | 40944 ft | 581 kts | 103° |
| 2026-04-25 12:50 | 29.05991 | 40.22212 | 40941 ft | 581 kts | 103° |
| 2026-04-25 12:50 | 29.04545 | 40.31304 | 40940 ft | 580 kts | 103° |
| 2026-04-25 12:51 | 29.03080 | 40.40381 | 40940 ft | 580 kts | 104° |
| 2026-04-25 12:51 | 29.01612 | 40.49455 | 40930 ft | 580 kts | 104° |
| 2026-04-25 12:52 | 29.00152 | 40.58458 | 40939 ft | 579 kts | 104° |
| 2026-04-25 12:52 | 28.98679 | 40.67511 | 40932 ft | 579 kts | 104° |
| 2026-04-25 12:53 | 28.97206 | 40.76554 | 40931 ft | 579 kts | 104° |
| 2026-04-25 12:53 | 28.95720 | 40.85593 | 40926 ft | 579 kts | 104° |
| 2026-04-25 12:54 | 28.94224 | 40.94649 | 40927 ft | 579 kts | 104° |
| 2026-04-25 12:54 | 28.92737 | 41.03623 | 40922 ft | 578 kts | 104° |
| 2026-04-25 12:55 | 28.91734 | 41.09657 | 40925 ft | 578 kts | 104° |
| 2026-04-25 12:55 | 28.89730 | 41.21668 | 40910 ft | 578 kts | 104° |
| 2026-04-25 12:56 | 28.88217 | 41.30685 | 40907 ft | 578 kts | 104° |
| 2026-04-25 12:56 | 28.86699 | 41.39695 | 40911 ft | 578 kts | 104° |
| 2026-04-25 12:57 | 28.85188 | 41.48635 | 40910 ft | 578 kts | 104° |
| 2026-04-25 12:57 | 28.83657 | 41.57658 | 40893 ft | 578 kts | 104° |
| 2026-04-25 12:58 | 28.82118 | 41.66664 | 40908 ft | 579 kts | 104° |
| 2026-04-25 12:58 | 28.80571 | 41.75687 | 40920 ft | 579 kts | 104° |
| 2026-04-25 12:59 | 28.79031 | 41.84636 | 40914 ft | 579 kts | 104° |
| 2026-04-25 12:59 | 28.77473 | 41.93659 | 40921 ft | 579 kts | 104° |
| 2026-04-25 13:00 | 28.76428 | 41.99687 | 40904 ft | 579 kts | 104° |
| 2026-04-25 13:00 | 28.74341 | 42.11676 | 40930 ft | 579 kts | 104° |
| 2026-04-25 13:01 | 28.72775 | 42.20633 | 40903 ft | 579 kts | 104° |
| 2026-04-25 13:01 | 28.71198 | 42.29618 | 40932 ft | 577 kts | 104° |
| 2026-04-25 13:02 | 28.69619 | 42.38575 | 40938 ft | 576 kts | 104° |
| 2026-04-25 13:02 | 28.68032 | 42.47538 | 40936 ft | 576 kts | 104° |
| 2026-04-25 13:03 | 28.66712 | 42.54965 | 40939 ft | 576 kts | 104° |
| 2026-04-25 13:03 | 28.65118 | 42.63906 | 40939 ft | 576 kts | 105° |
| 2026-04-25 13:04 | 28.63485 | 42.72858 | 40952 ft | 577 kts | 106° |
| 2026-04-25 13:04 | 28.61662 | 42.81763 | 40949 ft | 577 kts | 107° |
| 2026-04-25 13:05 | 28.59805 | 42.90600 | 40946 ft | 577 kts | 107° |
| 2026-04-25 13:05 | 28.57956 | 42.99509 | 40947 ft | 577 kts | 107° |
| 2026-04-25 13:06 | 28.56134 | 43.08367 | 40950 ft | 579 kts | 107° |
| 2026-04-25 13:06 | 28.54291 | 43.17314 | 40951 ft | 580 kts | 107° |
| 2026-04-25 13:07 | 28.52444 | 43.26248 | 40950 ft | 580 kts | 107° |
| 2026-04-25 13:07 | 28.50591 | 43.35174 | 40957 ft | 580 kts | 107° |
| 2026-04-25 13:08 | 28.48733 | 43.44090 | 40930 ft | 578 kts | 107° |
| 2026-04-25 13:08 | 28.46871 | 43.52989 | 40957 ft | 579 kts | 107° |
| 2026-04-25 13:09 | 28.45018 | 43.61825 | 40962 ft | 578 kts | 107° |
| 2026-04-25 13:09 | 28.43140 | 43.70752 | 40965 ft | 578 kts | 107° |
| 2026-04-25 13:10 | 28.41261 | 43.79629 | 40966 ft | 578 kts | 107° |
| 2026-04-25 13:10 | 28.39375 | 43.88515 | 40966 ft | 579 kts | 107° |
| 2026-04-25 13:11 | 28.37524 | 43.97372 | 40969 ft | 580 kts | 107° |
| 2026-04-25 13:11 | 28.35669 | 44.06310 | 40977 ft | 581 kts | 107° |
| 2026-04-25 13:12 | 28.33796 | 44.15284 | 40974 ft | 584 kts | 107° |
| 2026-04-25 13:12 | 28.32229 | 44.22752 | 40981 ft | 585 kts | 107° |
| 2026-04-25 13:13 | 28.30011 | 44.33273 | 40970 ft | 588 kts | 107° |
| 2026-04-25 13:13 | 28.28102 | 44.42293 | 40962 ft | 588 kts | 107° |
| 2026-04-25 13:14 | 28.26188 | 44.51315 | 40966 ft | 588 kts | 107° |
| 2026-04-25 13:14 | 28.24279 | 44.60275 | 40974 ft | 587 kts | 107° |
| 2026-04-25 13:15 | 28.22356 | 44.69271 | 40967 ft | 586 kts | 107° |
| 2026-04-25 13:15 | 28.20428 | 44.78258 | 40971 ft | 586 kts | 107° |
| 2026-04-25 13:16 | 28.18498 | 44.87226 | 40974 ft | 585 kts | 107° |
| 2026-04-25 13:16 | 28.16560 | 44.96198 | 40974 ft | 586 kts | 107° |
| 2026-04-25 13:17 | 28.14465 | 45.05100 | 40979 ft | 581 kts | 115° |
| 2026-04-25 13:17 | 28.10873 | 45.13175 | 40982 ft | 570 kts | 126° |
| 2026-04-25 13:18 | 28.06830 | 45.20838 | 40981 ft | 569 kts | 128° |
| 2026-04-25 13:18 | 28.02668 | 45.28490 | 40980 ft | 570 kts | 128° |
| 2026-04-25 13:19 | 27.98520 | 45.36143 | 40982 ft | 570 kts | 128° |
| 2026-04-25 13:19 | 27.95084 | 45.42517 | 40976 ft | 570 kts | 128° |
| 2026-04-25 13:20 | 27.90264 | 45.51480 | 40983 ft | 571 kts | 127° |
| 2026-04-25 13:20 | 27.88495 | 45.55471 | 40982 ft | 579 kts | 116° |
| 2026-04-25 13:20 | 27.87236 | 45.59814 | 40993 ft | 583 kts | 109° |
| 2026-04-25 13:21 | 27.85247 | 45.68710 | 40986 ft | 585 kts | 106° |
| 2026-04-25 13:21 | 27.83458 | 45.77681 | 40977 ft | 585 kts | 105° |
| 2026-04-25 13:22 | 27.81665 | 45.86639 | 40989 ft | 583 kts | 105° |
| 2026-04-25 13:23 | 27.78907 | 46.00029 | 40985 ft | 582 kts | 106° |
| 2026-04-25 13:23 | 27.77049 | 46.08932 | 40993 ft | 582 kts | 106° |
| 2026-04-25 13:24 | 27.75201 | 46.17768 | 40999 ft | 582 kts | 106° |
| 2026-04-25 13:24 | 27.73342 | 46.26651 | 40997 ft | 580 kts | 105° |
| 2026-04-25 13:25 | 27.71492 | 46.35522 | 40994 ft | 580 kts | 105° |
| 2026-04-25 13:25 | 27.69635 | 46.44395 | 40995 ft | 581 kts | 105° |
| 2026-04-25 13:26 | 27.67774 | 46.53256 | 40991 ft | 580 kts | 105° |
| 2026-04-25 13:26 | 27.65918 | 46.62062 | 40990 ft | 580 kts | 105° |
| 2026-04-25 13:27 | 27.64047 | 46.70912 | 40991 ft | 580 kts | 105° |
| 2026-04-25 13:27 | 27.62167 | 46.79770 | 40990 ft | 580 kts | 105° |
| 2026-04-25 13:28 | 27.60280 | 46.88636 | 40988 ft | 580 kts | 105° |
| 2026-04-25 13:28 | 27.58390 | 46.97483 | 40995 ft | 580 kts | 105° |
| 2026-04-25 13:29 | 27.56495 | 47.06328 | 40977 ft | 580 kts | 105° |
| 2026-04-25 13:29 | 27.54606 | 47.15110 | 40986 ft | 580 kts | 105° |
| 2026-04-25 13:30 | 27.51741 | 47.28383 | 40985 ft | 580 kts | 105° |
| 2026-04-25 13:31 | 27.48868 | 47.41629 | 40985 ft | 580 kts | 105° |
| 2026-04-25 13:31 | 27.46945 | 47.50453 | 40981 ft | 579 kts | 105° |
| 2026-04-25 13:32 | 27.45019 | 47.59267 | 40984 ft | 579 kts | 105° |
| 2026-04-25 13:32 | 27.42948 | 47.68020 | 40981 ft | 578 kts | 109° |
| 2026-04-25 13:33 | 27.40434 | 47.76613 | 40977 ft | 577 kts | 111° |
| 2026-04-25 13:33 | 27.37892 | 47.85118 | 40979 ft | 577 kts | 110° |
| 2026-04-25 13:34 | 27.35400 | 47.93702 | 40979 ft | 577 kts | 110° |
| 2026-04-25 13:34 | 27.32943 | 48.02299 | 40986 ft | 577 kts | 110° |
| 2026-04-25 13:35 | 27.30496 | 48.10892 | 40988 ft | 577 kts | 110° |
| 2026-04-25 13:35 | 27.28196 | 48.19494 | 40971 ft | 577 kts | 108° |
| 2026-04-25 13:36 | 27.25942 | 48.28169 | 40970 ft | 577 kts | 108° |
| 2026-04-25 13:36 | 27.23665 | 48.36832 | 40969 ft | 576 kts | 109° |
| 2026-04-25 13:37 | 27.21370 | 48.45458 | 40971 ft | 576 kts | 109° |
| 2026-04-25 13:37 | 27.19075 | 48.54031 | 40964 ft | 576 kts | 109° |
| 2026-04-25 13:38 | 27.16764 | 48.62645 | 40965 ft | 576 kts | 109° |
| 2026-04-25 13:38 | 27.14449 | 48.71254 | 40965 ft | 575 kts | 109° |
| 2026-04-25 13:39 | 27.12134 | 48.79847 | 40961 ft | 575 kts | 109° |
| 2026-04-25 13:39 | 27.10074 | 48.88526 | 40958 ft | 576 kts | 98° |
| 2026-04-25 13:40 | 27.09363 | 48.97469 | 40960 ft | 575 kts | 92° |
| 2026-04-25 13:40 | 27.08951 | 49.06436 | 40964 ft | 576 kts | 91° |
| 2026-04-25 13:41 | 27.08585 | 49.15410 | 40958 ft | 575 kts | 92° |
| 2026-04-25 13:41 | 27.08191 | 49.24318 | 40953 ft | 575 kts | 92° |
| 2026-04-25 13:42 | 27.07765 | 49.33303 | 40955 ft | 574 kts | 92° |
| 2026-04-25 13:42 | 27.07314 | 49.42246 | 40956 ft | 573 kts | 92° |
| 2026-04-25 13:43 | 27.06878 | 49.51135 | 40951 ft | 573 kts | 92° |
| 2026-04-25 13:43 | 27.06442 | 49.60058 | 40950 ft | 572 kts | 92° |
| 2026-04-25 13:44 | 27.06000 | 49.68961 | 40949 ft | 571 kts | 92° |
| 2026-04-25 13:44 | 27.05551 | 49.77851 | 40949 ft | 571 kts | 93° |
| 2026-04-25 13:45 | 27.05096 | 49.86741 | 40951 ft | 570 kts | 93° |
| 2026-04-25 13:45 | 27.04636 | 49.95639 | 40956 ft | 570 kts | 93° |
| 2026-04-25 13:46 | 27.04396 | 50.04479 | 40947 ft | 569 kts | 88° |
| 2026-04-25 13:46 | 27.04576 | 50.13354 | 40953 ft | 569 kts | 87° |
| 2026-04-25 13:47 | 27.04769 | 50.22220 | 40954 ft | 569 kts | 88° |
| 2026-04-25 13:47 | 27.04880 | 50.31094 | 40950 ft | 568 kts | 88° |
| 2026-04-25 13:48 | 27.03807 | 50.39859 | 40949 ft | 566 kts | 110° |
| 2026-04-25 13:48 | 27.01517 | 50.46718 | 40946 ft | 565 kts | 115° |
| 2026-04-25 13:49 | 26.98442 | 50.54820 | 40940 ft | 564 kts | 116° |
| 2026-04-25 13:49 | 26.95324 | 50.62850 | 40941 ft | 565 kts | 116° |
| 2026-04-25 13:50 | 26.92208 | 50.70939 | 40936 ft | 565 kts | 116° |
| 2026-04-25 13:50 | 26.89114 | 50.79030 | 40939 ft | 564 kts | 115° |
| 2026-04-25 13:51 | 26.86023 | 50.87121 | 40936 ft | 564 kts | 115° |
| 2026-04-25 13:51 | 26.82931 | 50.95197 | 40940 ft | 564 kts | 115° |
| 2026-04-25 13:52 | 26.79850 | 51.03274 | 40933 ft | 563 kts | 115° |
| 2026-04-25 13:52 | 26.76803 | 51.11309 | 40935 ft | 564 kts | 114° |
| 2026-04-25 13:53 | 26.74092 | 51.19560 | 40922 ft | 565 kts | 110° |
| 2026-04-25 13:53 | 26.71541 | 51.27879 | 40900 ft | 564 kts | 110° |
| 2026-04-25 13:53 | 26.70251 | 51.32029 | 40730 ft | 564 kts | 111° |
| 2026-04-25 13:54 | 26.68963 | 51.36108 | 40438 ft | 564 kts | 111° |
| 2026-04-25 13:54 | 26.67641 | 51.40242 | 40188 ft | 565 kts | 111° |
| 2026-04-25 13:54 | 26.66308 | 51.44381 | 39974 ft | 566 kts | 111° |
| 2026-04-25 13:54 | 26.64971 | 51.48531 | 39760 ft | 567 kts | 111° |
| 2026-04-25 13:55 | 26.63631 | 51.52692 | 39536 ft | 568 kts | 111° |
| 2026-04-25 13:55 | 26.62291 | 51.56851 | 39317 ft | 569 kts | 111° |
| 2026-04-25 13:55 | 26.60947 | 51.61016 | 39112 ft | 570 kts | 111° |
| 2026-04-25 13:55 | 26.59601 | 51.65190 | 38891 ft | 571 kts | 111° |
| 2026-04-25 13:56 | 26.58252 | 51.69368 | 38705 ft | 572 kts | 111° |
| 2026-04-25 13:56 | 26.56906 | 51.73547 | 38480 ft | 573 kts | 111° |
| 2026-04-25 13:56 | 26.55572 | 51.77686 | 38227 ft | 573 kts | 111° |
| 2026-04-25 13:56 | 26.54223 | 51.81864 | 37989 ft | 572 kts | 112° |
| 2026-04-25 13:57 | 26.52870 | 51.86034 | 37749 ft | 570 kts | 112° |
| 2026-04-25 13:57 | 26.51959 | 51.88842 | 37589 ft | 569 kts | 112° |
| 2026-04-25 13:57 | 26.50157 | 51.94317 | 37241 ft | 566 kts | 112° |
| 2026-04-25 13:57 | 26.48784 | 51.98431 | 37013 ft | 564 kts | 113° |
| 2026-04-25 13:58 | 26.47413 | 52.02522 | 36788 ft | 562 kts | 113° |
| 2026-04-25 13:58 | 26.46048 | 52.06593 | 36543 ft | 558 kts | 113° |
| 2026-04-25 13:58 | 26.44688 | 52.10654 | 36293 ft | 556 kts | 113° |
| 2026-04-25 13:58 | 26.43339 | 52.14687 | 36044 ft | 554 kts | 114° |
| 2026-04-25 13:59 | 26.41997 | 52.18710 | 35804 ft | 552 kts | 114° |
| 2026-04-25 13:59 | 26.40656 | 52.22719 | 35559 ft | 550 kts | 114° |
| 2026-04-25 13:59 | 26.39320 | 52.26703 | 35316 ft | 548 kts | 114° |
| 2026-04-25 13:59 | 26.37985 | 52.30679 | 35085 ft | 546 kts | 114° |
| 2026-04-25 14:00 | 26.37104 | 52.33299 | 34902 ft | 544 kts | 114° |
| 2026-04-25 14:00 | 26.35347 | 52.38523 | 34600 ft | 540 kts | 115° |
| 2026-04-25 14:00 | 26.33986 | 52.42412 | 34364 ft | 537 kts | 117° |
| 2026-04-25 14:00 | 26.32534 | 52.46242 | 34145 ft | 534 kts | 118° |
| 2026-04-25 14:01 | 26.31048 | 52.50025 | 33901 ft | 531 kts | 118° |
| 2026-04-25 14:01 | 26.29557 | 52.53789 | 33627 ft | 530 kts | 119° |
| 2026-04-25 14:01 | 26.28071 | 52.57556 | 33371 ft | 530 kts | 118° |
| 2026-04-25 14:01 | 26.26591 | 52.61336 | 33112 ft | 531 kts | 118° |
| 2026-04-25 14:02 | 26.25119 | 52.65121 | 32844 ft | 532 kts | 118° |
| 2026-04-25 14:02 | 26.23673 | 52.68861 | 32571 ft | 533 kts | 118° |
| 2026-04-25 14:02 | 26.22213 | 52.72669 | 32346 ft | 534 kts | 117° |
| 2026-04-25 14:02 | 26.21225 | 52.75253 | 32169 ft | 534 kts | 117° |
| 2026-04-25 14:03 | 26.19295 | 52.80306 | 31835 ft | 534 kts | 117° |
| 2026-04-25 14:03 | 26.17842 | 52.84105 | 31592 ft | 533 kts | 117° |
| 2026-04-25 14:03 | 26.16389 | 52.87899 | 31351 ft | 532 kts | 117° |
| 2026-04-25 14:03 | 26.14939 | 52.91678 | 31113 ft | 530 kts | 117° |
| 2026-04-25 14:04 | 26.13488 | 52.95454 | 30940 ft | 529 kts | 117° |
| 2026-04-25 14:04 | 26.10592 | 53.02975 | 30906 ft | 528 kts | 117° |
| 2026-04-25 14:05 | 26.07779 | 53.10451 | 30912 ft | 525 kts | 116° |
| 2026-04-25 14:05 | 26.05033 | 53.17988 | 30911 ft | 525 kts | 116° |
| 2026-04-25 14:06 | 26.02281 | 53.25520 | 30866 ft | 521 kts | 116° |
| 2026-04-25 14:06 | 26.00922 | 53.29224 | 30289 ft | 516 kts | 116° |
| 2026-04-25 14:06 | 25.99571 | 53.32887 | 29259 ft | 520 kts | 116° |
| 2026-04-25 14:06 | 25.98190 | 53.36620 | 28303 ft | 522 kts | 116° |
| 2026-04-25 14:07 | 25.96817 | 53.40328 | 27829 ft | 512 kts | 115° |
| 2026-04-25 14:07 | 25.95481 | 53.43945 | 27575 ft | 499 kts | 115° |
| 2026-04-25 14:07 | 25.94170 | 53.47492 | 27341 ft | 494 kts | 116° |
| 2026-04-25 14:07 | 25.92863 | 53.51020 | 27101 ft | 493 kts | 115° |
| 2026-04-25 14:08 | 25.91601 | 53.54559 | 26851 ft | 492 kts | 114° |
| 2026-04-25 14:08 | 25.90382 | 53.58106 | 26596 ft | 491 kts | 114° |
| 2026-04-25 14:08 | 25.89193 | 53.61613 | 26365 ft | 489 kts | 114° |
| 2026-04-25 14:08 | 25.87998 | 53.65141 | 26126 ft | 487 kts | 114° |
| 2026-04-25 14:09 | 25.86804 | 53.68645 | 25893 ft | 485 kts | 114° |
| 2026-04-25 14:09 | 25.85603 | 53.72152 | 25657 ft | 483 kts | 114° |
| 2026-04-25 14:09 | 25.84407 | 53.75629 | 25428 ft | 481 kts | 114° |
| 2026-04-25 14:09 | 25.83613 | 53.77923 | 25264 ft | 480 kts | 114° |
| 2026-04-25 14:10 | 25.82008 | 53.82540 | 24947 ft | 478 kts | 114° |
| 2026-04-25 14:10 | 25.80809 | 53.85980 | 24727 ft | 477 kts | 114° |
| 2026-04-25 14:10 | 25.79612 | 53.89414 | 24504 ft | 475 kts | 114° |
| 2026-04-25 14:10 | 25.78422 | 53.92827 | 24280 ft | 474 kts | 114° |
| 2026-04-25 14:11 | 25.77234 | 53.96233 | 24051 ft | 472 kts | 114° |
| 2026-04-25 14:11 | 25.76052 | 53.99620 | 23831 ft | 470 kts | 114° |
| 2026-04-25 14:11 | 25.74881 | 54.03015 | 23612 ft | 470 kts | 112° |
| 2026-04-25 14:11 | 25.73791 | 54.06432 | 23368 ft | 470 kts | 111° |
| 2026-04-25 14:12 | 25.72754 | 54.09860 | 23113 ft | 468 kts | 110° |
| 2026-04-25 14:12 | 25.71751 | 54.13233 | 22823 ft | 464 kts | 110° |
| 2026-04-25 14:12 | 25.70745 | 54.16612 | 22297 ft | 457 kts | 111° |
| 2026-04-25 14:12 | 25.69742 | 54.19947 | 21714 ft | 451 kts | 111° |
| 2026-04-25 14:13 | 25.68744 | 54.23230 | 21124 ft | 446 kts | 111° |
| 2026-04-25 14:13 | 25.67750 | 54.26471 | 20553 ft | 441 kts | 111° |
| 2026-04-25 14:13 | 25.66764 | 54.29669 | 20022 ft | 435 kts | 111° |
| 2026-04-25 14:13 | 25.65787 | 54.32826 | 19498 ft | 430 kts | 111° |
| 2026-04-25 14:14 | 25.64870 | 54.35954 | 18970 ft | 426 kts | 108° |
| 2026-04-25 14:14 | 25.64340 | 54.39166 | 18465 ft | 423 kts | 99° |
| 2026-04-25 14:14 | 25.64057 | 54.42348 | 17909 ft | 418 kts | 97° |
| 2026-04-25 14:14 | 25.63829 | 54.45552 | 17269 ft | 414 kts | 96° |
| 2026-04-25 14:15 | 25.63618 | 54.48739 | 16629 ft | 411 kts | 96° |
| 2026-04-25 14:15 | 25.63550 | 54.49801 | 16408 ft | 410 kts | 96° |
| 2026-04-25 14:15 | 25.63222 | 54.54998 | 15420 ft | 403 kts | 95° |
| 2026-04-25 14:15 | 25.63030 | 54.58077 | 14851 ft | 399 kts | 95° |
| 2026-04-25 14:16 | 25.62839 | 54.61125 | 14284 ft | 395 kts | 95° |
| 2026-04-25 14:16 | 25.62653 | 54.64117 | 13998 ft | 383 kts | 95° |
| 2026-04-25 14:16 | 25.62473 | 54.67005 | 13788 ft | 369 kts | 95° |
| 2026-04-25 14:16 | 25.62300 | 54.69786 | 13580 ft | 353 kts | 95° |
| 2026-04-25 14:17 | 25.62134 | 54.72433 | 13332 ft | 337 kts | 95° |
| 2026-04-25 14:17 | 25.61974 | 54.74978 | 13142 ft | 325 kts | 95° |
| 2026-04-25 14:17 | 25.61819 | 54.77430 | 12978 ft | 313 kts | 95° |
| 2026-04-25 14:17 | 25.61672 | 54.79768 | 12811 ft | 302 kts | 95° |
| 2026-04-25 14:18 | 25.61526 | 54.82056 | 12577 ft | 295 kts | 95° |
| 2026-04-25 14:18 | 25.61383 | 54.84308 | 12242 ft | 291 kts | 95° |
| 2026-04-25 14:18 | 25.61106 | 54.86523 | 11831 ft | 290 kts | 107° |
| 2026-04-25 14:18 | 25.60412 | 54.88614 | 11450 ft | 287 kts | 114° |
| 2026-04-25 14:19 | 25.59617 | 54.90648 | 11068 ft | 287 kts | 115° |
| 2026-04-25 14:19 | 25.58825 | 54.92643 | 10707 ft | 285 kts | 115° |
| 2026-04-25 14:19 | 25.58021 | 54.94683 | 10334 ft | 285 kts | 114° |
| 2026-04-25 14:19 | 25.57232 | 54.96693 | 9953 ft | 284 kts | 114° |
| 2026-04-25 14:20 | 25.56977 | 54.97346 | 9833 ft | 284 kts | 114° |
| 2026-04-25 14:20 | 25.56191 | 54.99355 | 9437 ft | 283 kts | 114° |
| 2026-04-25 14:20 | 25.54893 | 55.02665 | 8848 ft | 279 kts | 115° |
| 2026-04-25 14:20 | 25.54010 | 55.04570 | 8492 ft | 277 kts | 120° |
| 2026-04-25 14:21 | 25.53059 | 55.06420 | 8119 ft | 276 kts | 121° |
| 2026-04-25 14:21 | 25.52100 | 55.08259 | 8002 ft | 276 kts | 121° |
| 2026-04-25 14:21 | 25.51141 | 55.10101 | 7993 ft | 276 kts | 121° |
| 2026-04-25 14:21 | 25.50181 | 55.11946 | 7995 ft | 276 kts | 121° |
| 2026-04-25 14:22 | 25.49247 | 55.13744 | 7997 ft | 260 kts | 121° |
| 2026-04-25 14:22 | 25.48373 | 55.15428 | 8002 ft | 245 kts | 121° |
| 2026-04-25 14:22 | 25.47517 | 55.17074 | 8018 ft | 254 kts | 121° |
| 2026-04-25 14:22 | 25.46602 | 55.18827 | 7974 ft | 271 kts | 121° |
| 2026-04-25 14:23 | 25.45522 | 55.20525 | 7978 ft | 274 kts | 131° |
| 2026-04-25 14:23 | 25.44268 | 55.22112 | 7985 ft | 274 kts | 133° |
| 2026-04-25 14:23 | 25.42990 | 55.23671 | 7988 ft | 273 kts | 134° |
| 2026-04-25 14:23 | 25.41713 | 55.25228 | 7991 ft | 273 kts | 133° |
| 2026-04-25 14:24 | 25.40435 | 55.26791 | 7991 ft | 273 kts | 133° |
| 2026-04-25 14:24 | 25.39161 | 55.28351 | 7993 ft | 273 kts | 133° |
| 2026-04-25 14:24 | 25.37890 | 55.29909 | 7992 ft | 271 kts | 133° |
| 2026-04-25 14:24 | 25.36669 | 55.31409 | 7995 ft | 255 kts | 133° |
| 2026-04-25 14:25 | 25.35399 | 55.32729 | 7996 ft | 249 kts | 147° |
| 2026-04-25 14:25 | 25.33941 | 55.33694 | 7992 ft | 247 kts | 154° |
| 2026-04-25 14:25 | 25.32418 | 55.34584 | 7994 ft | 247 kts | 154° |
| 2026-04-25 14:25 | 25.31902 | 55.34881 | 7991 ft | 247 kts | 154° |
| 2026-04-25 14:26 | 25.29395 | 55.36333 | 7615 ft | 244 kts | 154° |
| 2026-04-25 14:26 | 25.27889 | 55.37210 | 7259 ft | 245 kts | 154° |
| 2026-04-25 14:26 | 25.26380 | 55.38091 | 6935 ft | 245 kts | 154° |
| 2026-04-25 14:26 | 25.24871 | 55.38974 | 6606 ft | 245 kts | 154° |
| 2026-04-25 14:27 | 25.23365 | 55.39855 | 6317 ft | 244 kts | 154° |
| 2026-04-25 14:27 | 25.21864 | 55.40732 | 5979 ft | 244 kts | 154° |
| 2026-04-25 14:27 | 25.20364 | 55.41610 | 5649 ft | 244 kts | 154° |
| 2026-04-25 14:27 | 25.18864 | 55.42487 | 5326 ft | 243 kts | 154° |
| 2026-04-25 14:28 | 25.17373 | 55.43361 | 5032 ft | 241 kts | 154° |
| 2026-04-25 14:28 | 25.15893 | 55.44225 | 4741 ft | 240 kts | 154° |
| 2026-04-25 14:28 | 25.14421 | 55.45083 | 4418 ft | 239 kts | 154° |
| 2026-04-25 14:28 | 25.12961 | 55.45933 | 4055 ft | 241 kts | 153° |
| 2026-04-25 14:29 | 25.11519 | 55.46880 | 3733 ft | 241 kts | 142° |
| 2026-04-25 14:29 | 25.10424 | 55.48267 | 3384 ft | 241 kts | 122° |
| 2026-04-25 14:29 | 25.09543 | 55.49826 | 3128 ft | 238 kts | 120° |
| 2026-04-25 14:29 | 25.08927 | 55.51492 | 2786 ft | 234 kts | 95° |
| 2026-04-25 14:30 | 25.09131 | 55.53225 | 2449 ft | 227 kts | 63° |
| 2026-04-25 14:30 | 25.11521 | 55.54955 | 2018 ft | 212 kts | 356° |
| 2026-04-25 14:30 | 25.12930 | 55.54527 | 2002 ft | 210 kts | 335° |
| 2026-04-25 14:31 | 25.14207 | 55.53838 | 2003 ft | 197 kts | 333° |
| 2026-04-25 14:31 | 25.15365 | 55.53168 | 2021 ft | 177 kts | 332° |
| 2026-04-25 14:31 | 25.16261 | 55.52400 | 2019 ft | 152 kts | 313° |
| 2026-04-25 14:31 | 25.16881 | 55.51511 | 2013 ft | 147 kts | 306° |
| 2026-04-25 14:32 | 25.17424 | 55.50590 | 2006 ft | 140 kts | 304° |
| 2026-04-25 14:32 | 25.17937 | 55.49690 | 2000 ft | 138 kts | 303° |
| 2026-04-25 14:32 | 25.18436 | 55.48786 | 1908 ft | 138 kts | 303° |
| 2026-04-25 14:32 | 25.18936 | 55.47889 | 1738 ft | 134 kts | 304° |
| 2026-04-25 14:33 | 25.19415 | 55.47030 | 1578 ft | 130 kts | 304° |
| 2026-04-25 14:33 | 25.19886 | 55.46182 | 1384 ft | 129 kts | 303° |
| 2026-04-25 14:33 | 25.20196 | 55.45621 | 1285 ft | 129 kts | 303° |
| 2026-04-25 14:33 | 25.20825 | 55.44483 | 1075 ft | 131 kts | 302° |
| 2026-04-25 14:34 | 25.21301 | 55.43625 | 906 ft | 131 kts | 301° |
| 2026-04-25 14:34 | 25.21770 | 55.42772 | 755 ft | 128 kts | 302° |
| 2026-04-25 14:34 | 25.22234 | 55.41934 | 614 ft | 127 kts | 302° |
| 2026-04-25 14:34 | 25.22701 | 55.41091 | 412 ft | 129 kts | 303° |
| 2026-04-25 14:35 | 25.23161 | 55.40235 | 226 ft | 127 kts | 304° |
| 2026-04-25 14:35 | 25.23628 | 55.39409 | 45 ft | 131 kts | 303° |
| 2026-04-25 14:35 | 25.23942 | 55.38854 | 28 ft | 116 kts | 301° |
| 2026-04-25 14:35 | 25.24346 | 55.38127 | 28 ft | 68 kts | 301° |
| 2026-04-25 14:36 | 25.24433 | 55.37925 | 28 ft | 34 kts | 262° |
| 2026-04-25 14:36 | 25.24368 | 55.37844 | 28 ft | 0 kts | 212° |
| 2026-04-25 14:36 | 25.24356 | 55.37824 | 28 ft | 13 kts | 245° |
| 2026-04-25 14:36 | 25.24378 | 55.37708 | 28 ft | 16 kts | 300° |
| 2026-04-25 14:37 | 25.24437 | 55.37597 | 28 ft | 18 kts | 300° |
| 2026-04-25 14:37 | 25.24503 | 55.37480 | 28 ft | 18 kts | 303° |
| 2026-04-25 14:37 | 25.24572 | 55.37363 | 28 ft | 18 kts | 302° |
| 2026-04-25 14:37 | 25.24636 | 55.37239 | 28 ft | 19 kts | 303° |
| 2026-04-25 14:38 | 25.24707 | 55.37113 | 28 ft | 20 kts | 302° |
| 2026-04-25 14:38 | 25.24781 | 55.36983 | 28 ft | 20 kts | 302° |
| 2026-04-25 14:38 | 25.24846 | 55.36844 | 28 ft | 20 kts | 288° |
| 2026-04-25 14:38 | 25.24885 | 55.36693 | 28 ft | 20 kts | 289° |
| 2026-04-25 14:39 | 25.24951 | 55.36554 | 28 ft | 21 kts | 300° |
| 2026-04-25 14:39 | 25.25030 | 55.36410 | 28 ft | 23 kts | 301° |
| 2026-04-25 14:39 | 25.25118 | 55.36252 | 28 ft | 25 kts | 302° |
| 2026-04-25 14:39 | 25.25194 | 55.36115 | 28 ft | 0 kts | 301° |
| 2026-04-25 14:40 | 25.25200 | 55.36096 | 28 ft | 9 kts | 284° |
| 2026-04-25 14:40 | 25.25167 | 55.36017 | 28 ft | 8 kts | 237° |
| 2026-04-25 14:40 | 25.25129 | 55.35955 | 28 ft | 10 kts | 221° |
| 2026-04-25 14:41 | 25.25089 | 55.35931 | 28 ft | 0 kts | 208° |